aviador You're here:

EPKK Decoded Metar

KRAKOW in POLAND
Report Time2017-08-18 23:30:00
UTC Time2017-08-18 23:52:27
Flight Rules vfr VFR
WindVRB at 01 kt
Visibility9999 m
Phenomena:N/A
Clouds:N/A
Expected CloudBase > 1,200 ft AGL from Temp-Dew spread
CeilingNone
Temp18°C (ISA +5)
Dew Point15°C (83% RH)
QNH1014 hPa
Density Alt1,509 ft
Elevation778 ft
Report Wrong Elevation
Raw Report
EPKK 182330Z VRB01KT CAVOK 18/15 Q1014=

Extra information for EPKK:More info

Metar Taf Metar & Taf Last 4 Metars F.Rules Stats Wind Profile Meteogram Temp Stats Airport Information Weather charts Add Link Nearby VenuesMetar ALERT Operation Metar Decoded Social comments